sensor_id;sensor_type;location;lat;lon;timestamp;temperature;humidity
4594;DHT22;2309;51.674;8.368;2023-04-08T00:02:12;2.00;99.90
4594;DHT22;2309;51.674;8.368;2023-04-08T00:04:44;1.90;99.90
4594;DHT22;2309;51.674;8.368;2023-04-08T00:12:09;1.80;99.90
4594;DHT22;2309;51.674;8.368;2023-04-08T00:19:36;1.60;99.90
4594;DHT22;2309;51.674;8.368;2023-04-08T00:29:28;1.70;99.90
4594;DHT22;2309;51.674;8.368;2023-04-08T00:34:24;1.70;99.90
4594;DHT22;2309;51.674;8.368;2023-04-08T00:36:51;1.60;99.90
4594;DHT22;2309;51.674;8.368;2023-04-08T00:39:20;1.60;99.90
4594;DHT22;2309;51.674;8.368;2023-04-08T00:44:15;1.60;99.90
4594;DHT22;2309;51.674;8.368;2023-04-08T00:46:45;1.60;99.90
4594;DHT22;2309;51.674;8.368;2023-04-08T00:49:15;1.50;99.90
4594;DHT22;2309;51.674;8.368;2023-04-08T00:51:42;1.40;99.90
4594;DHT22;2309;51.674;8.368;2023-04-08T00:54:12;1.40;99.90
4594;DHT22;2309;51.674;8.368;2023-04-08T00:56:42;1.50;99.90
4594;DHT22;2309;51.674;8.368;2023-04-08T00:59:12;1.60;99.90
4594;DHT22;2309;51.674;8.368;2023-04-08T01:01:43;1.70;99.90
4594;DHT22;2309;51.674;8.368;2023-04-08T01:09:05;1.40;99.90
4594;DHT22;2309;51.674;8.368;2023-04-08T01:11:36;1.30;99.90
4594;DHT22;2309;51.674;8.368;2023-04-08T01:14:04;1.30;99.90
4594;DHT22;2309;51.674;8.368;2023-04-08T01:16:33;1.30;99.90
4594;DHT22;2309;51.674;8.368;2023-04-08T01:21:30;1.30;99.90
4594;DHT22;2309;51.674;8.368;2023-04-08T01:26:28;1.00;99.90
4594;DHT22;2309;51.674;8.368;2023-04-08T01:28:59;1.10;99.90
4594;DHT22;2309;51.674;8.368;2023-04-08T01:31:27;1.10;99.90
4594;DHT22;2309;51.674;8.368;2023-04-08T01:33:56;1.10;99.90
4594;DHT22;2309;51.674;8.368;2023-04-08T01:36:25;1.10;99.90
4594;DHT22;2309;51.674;8.368;2023-04-08T01:38:55;1.10;99.90
4594;DHT22;2309;51.674;8.368;2023-04-08T01:41:25;1.20;99.90
4594;DHT22;2309;51.674;8.368;2023-04-08T01:46:21;1.10;99.90
4594;DHT22;2309;51.674;8.368;2023-04-08T01:48:50;1.10;99.90
4594;DHT22;2309;51.674;8.368;2023-04-08T01:51:20;1.10;99.90
4594;DHT22;2309;51.674;8.368;2023-04-08T01:53:48;1.20;99.90
4594;DHT22;2309;51.674;8.368;2023-04-08T01:56:19;1.10;99.90
4594;DHT22;2309;51.674;8.368;2023-04-08T02:01:20;1.10;99.90
4594;DHT22;2309;51.674;8.368;2023-04-08T02:03:45;1.20;99.90
4594;DHT22;2309;51.674;8.368;2023-04-08T02:06:15;1.40;99.90
4594;DHT22;2309;51.674;8.368;2023-04-08T02:08:49;1.50;99.90
4594;DHT22;2309;51.674;8.368;2023-04-08T02:18:37;1.90;99.90
4594;DHT22;2309;51.674;8.368;2023-04-08T02:21:09;2.10;99.90
4594;DHT22;2309;51.674;8.368;2023-04-08T02:28:31;2.10;99.90
4594;DHT22;2309;51.674;8.368;2023-04-08T02:33:27;2.30;99.90
4594;DHT22;2309;51.674;8.368;2023-04-08T02:35:56;2.40;99.90
4594;DHT22;2309;51.674;8.368;2023-04-08T02:38:24;2.50;99.90
4594;DHT22;2309;51.674;8.368;2023-04-08T02:40:53;2.70;99.90
4594;DHT22;2309;51.674;8.368;2023-04-08T02:43:20;2.70;99.90
4594;DHT22;2309;51.674;8.368;2023-04-08T02:45:50;2.80;99.90
4594;DHT22;2309;51.674;8.368;2023-04-08T02:48:18;2.70;99.90
4594;DHT22;2309;51.674;8.368;2023-04-08T02:50:47;2.70;99.90
4594;DHT22;2309;51.674;8.368;2023-04-08T02:55:42;2.80;99.90
4594;DHT22;2309;51.674;8.368;2023-04-08T02:58:09;2.80;99.90
4594;DHT22;2309;51.674;8.368;2023-04-08T03:00:37;2.90;99.90
4594;DHT22;2309;51.674;8.368;2023-04-08T03:03:04;2.90;99.90
4594;DHT22;2309;51.674;8.368;2023-04-08T03:05:32;3.00;99.90
4594;DHT22;2309;51.674;8.368;2023-04-08T03:08:02;3.10;99.90
4594;DHT22;2309;51.674;8.368;2023-04-08T03:10:29;3.20;99.90
4594;DHT22;2309;51.674;8.368;2023-04-08T03:12:57;3.30;99.90
4594;DHT22;2309;51.674;8.368;2023-04-08T03:15:27;3.20;99.90
4594;DHT22;2309;51.674;8.368;2023-04-08T03:20:22;3.10;99.90
4594;DHT22;2309;51.674;8.368;2023-04-08T03:22:50;3.20;99.90
4594;DHT22;2309;51.674;8.368;2023-04-08T03:25:19;3.20;99.90
4594;DHT22;2309;51.674;8.368;2023-04-08T03:27:45;3.30;99.90
4594;DHT22;2309;51.674;8.368;2023-04-08T03:30:14;3.30;99.90
4594;DHT22;2309;51.674;8.368;2023-04-08T03:32:41;3.30;99.90
4594;DHT22;2309;51.674;8.368;2023-04-08T03:35:09;3.20;99.90
4594;DHT22;2309;51.674;8.368;2023-04-08T03:37:37;3.20;99.90
4594;DHT22;2309;51.674;8.368;2023-04-08T03:40:09;3.30;99.90
4594;DHT22;2309;51.674;8.368;2023-04-08T03:42:37;3.30;99.90
4594;DHT22;2309;51.674;8.368;2023-04-08T03:45:06;3.30;99.90
4594;DHT22;2309;51.674;8.368;2023-04-08T03:47:33;3.30;99.90
4594;DHT22;2309;51.674;8.368;2023-04-08T03:50:00;3.30;99.90
4594;DHT22;2309;51.674;8.368;2023-04-08T03:52:27;3.40;99.90
4594;DHT22;2309;51.674;8.368;2023-04-08T03:54:54;3.60;99.90
4594;DHT22;2309;51.674;8.368;2023-04-08T03:57:21;3.60;99.90
4594;DHT22;2309;51.674;8.368;2023-04-08T03:59:47;3.70;99.90
4594;DHT22;2309;51.674;8.368;2023-04-08T04:02:15;3.80;99.90
4594;DHT22;2309;51.674;8.368;2023-04-08T04:04:44;3.80;99.90
4594;DHT22;2309;51.674;8.368;2023-04-08T04:07:11;3.90;99.90
4594;DHT22;2309;51.674;8.368;2023-04-08T04:09:39;3.90;99.90
4594;DHT22;2309;51.674;8.368;2023-04-08T04:12:08;3.90;99.90
4594;DHT22;2309;51.674;8.368;2023-04-08T04:14:39;4.00;99.90
4594;DHT22;2309;51.674;8.368;2023-04-08T04:19:36;4.00;99.90
4594;DHT22;2309;51.674;8.368;2023-04-08T04:22:02;3.90;99.90
4594;DHT22;2309;51.674;8.368;2023-04-08T04:24:32;4.00;99.90
4594;DHT22;2309;51.674;8.368;2023-04-08T04:27:00;4.00;99.90
4594;DHT22;2309;51.674;8.368;2023-04-08T04:29:27;4.10;99.90
4594;DHT22;2309;51.674;8.368;2023-04-08T04:31:54;4.00;99.90
4594;DHT22;2309;51.674;8.368;2023-04-08T04:34:20;4.10;99.90
4594;DHT22;2309;51.674;8.368;2023-04-08T04:36:47;4.10;99.90
4594;DHT22;2309;51.674;8.368;2023-04-08T04:39:17;4.10;99.90
4594;DHT22;2309;51.674;8.368;2023-04-08T04:41:46;4.10;99.90
4594;DHT22;2309;51.674;8.368;2023-04-08T04:44:14;4.10;99.90
4594;DHT22;2309;51.674;8.368;2023-04-08T04:46:43;4.10;99.90
4594;DHT22;2309;51.674;8.368;2023-04-08T04:49:10;4.10;99.90
4594;DHT22;2309;51.674;8.368;2023-04-08T04:51:38;4.10;99.90
4594;DHT22;2309;51.674;8.368;2023-04-08T04:54:08;4.10;99.90
4594;DHT22;2309;51.674;8.368;2023-04-08T04:56:35;4.10;99.90
4594;DHT22;2309;51.674;8.368;2023-04-08T05:01:34;4.10;99.90
4594;DHT22;2309;51.674;8.368;2023-04-08T05:06:29;4.20;99.90
4594;DHT22;2309;51.674;8.368;2023-04-08T05:08:55;4.20;99.90
4594;DHT22;2309;51.674;8.368;2023-04-08T05:11:26;4.30;99.90
4594;DHT22;2309;51.674;8.368;2023-04-08T05:13:53;4.20;99.90
4594;DHT22;2309;51.674;8.368;2023-04-08T05:16:26;4.30;99.90
4594;DHT22;2309;51.674;8.368;2023-04-08T05:18:50;4.40;99.90
4594;DHT22;2309;51.674;8.368;2023-04-08T05:21:19;4.40;99.90
4594;DHT22;2309;51.674;8.368;2023-04-08T05:23:49;4.40;99.90
4594;DHT22;2309;51.674;8.368;2023-04-08T05:26:19;4.60;99.90
4594;DHT22;2309;51.674;8.368;2023-04-08T05:36:13;4.90;99.90
4594;DHT22;2309;51.674;8.368;2023-04-08T05:38:41;4.90;99.90
4594;DHT22;2309;51.674;8.368;2023-04-08T05:43:35;5.00;99.90
4594;DHT22;2309;51.674;8.368;2023-04-08T05:48:31;5.30;99.90
4594;DHT22;2309;51.674;8.368;2023-04-08T05:50:58;5.20;99.90
4594;DHT22;2309;51.674;8.368;2023-04-08T05:53:25;5.20;99.90
4594;DHT22;2309;51.674;8.368;2023-04-08T05:55:52;5.30;99.90
4594;DHT22;2309;51.674;8.368;2023-04-08T05:58:19;5.30;99.90
4594;DHT22;2309;51.674;8.368;2023-04-08T06:00:47;5.30;99.90
4594;DHT22;2309;51.674;8.368;2023-04-08T06:03:14;5.40;99.90
4594;DHT22;2309;51.674;8.368;2023-04-08T06:05:41;5.30;99.90
4594;DHT22;2309;51.674;8.368;2023-04-08T06:08:10;5.30;99.90
4594;DHT22;2309;51.674;8.368;2023-04-08T06:10:38;5.40;99.90
4594;DHT22;2309;51.674;8.368;2023-04-08T06:13:05;5.40;99.90
4594;DHT22;2309;51.674;8.368;2023-04-08T06:17:58;5.40;99.90
4594;DHT22;2309;51.674;8.368;2023-04-08T06:22:53;5.60;99.90
4594;DHT22;2309;51.674;8.368;2023-04-08T06:25:20;5.70;99.90
4594;DHT22;2309;51.674;8.368;2023-04-08T06:27:48;5.70;99.90
4594;DHT22;2309;51.674;8.368;2023-04-08T06:30:18;5.80;99.90
4594;DHT22;2309;51.674;8.368;2023-04-08T06:32:49;5.70;99.90
4594;DHT22;2309;51.674;8.368;2023-04-08T06:35:15;5.70;99.90
4594;DHT22;2309;51.674;8.368;2023-04-08T06:37:44;5.70;99.90
4594;DHT22;2309;51.674;8.368;2023-04-08T06:40:11;5.80;99.90
4594;DHT22;2309;51.674;8.368;2023-04-08T06:42:39;5.80;99.90
4594;DHT22;2309;51.674;8.368;2023-04-08T06:45:08;5.80;99.90
4594;DHT22;2309;51.674;8.368;2023-04-08T06:47:36;5.90;99.90
4594;DHT22;2309;51.674;8.368;2023-04-08T06:50:07;5.90;99.90
4594;DHT22;2309;51.674;8.368;2023-04-08T06:52:34;5.90;99.90
4594;DHT22;2309;51.674;8.368;2023-04-08T06:55:01;6.00;99.90
4594;DHT22;2309;51.674;8.368;2023-04-08T06:57:28;6.10;99.90
4594;DHT22;2309;51.674;8.368;2023-04-08T06:59:54;6.20;29.20
4594;DHT22;2309;51.674;8.368;2023-04-08T07:02:22;6.10;11.00
4594;DHT22;2309;51.674;8.368;2023-04-08T07:04:50;6.20;1.00
4594;DHT22;2309;51.674;8.368;2023-04-08T07:07:17;6.30;1.00
4594;DHT22;2309;51.674;8.368;2023-04-08T07:09:45;6.50;1.00
4594;DHT22;2309;51.674;8.368;2023-04-08T07:14:43;6.70;99.90
4594;DHT22;2309;51.674;8.368;2023-04-08T07:17:11;6.80;99.90
4594;DHT22;2309;51.674;8.368;2023-04-08T07:19:41;6.80;99.90
4594;DHT22;2309;51.674;8.368;2023-04-08T07:22:08;6.80;99.90
4594;DHT22;2309;51.674;8.368;2023-04-08T07:24:36;6.90;99.90
4594;DHT22;2309;51.674;8.368;2023-04-08T07:29:29;7.00;98.80
4594;DHT22;2309;51.674;8.368;2023-04-08T07:31:59;7.10;93.40
4594;DHT22;2309;51.674;8.368;2023-04-08T07:34:26;7.10;1.00
4594;DHT22;2309;51.674;8.368;2023-04-08T07:36:54;7.10;99.90
4594;DHT22;2309;51.674;8.368;2023-04-08T07:39:22;7.00;99.90
4594;DHT22;2309;51.674;8.368;2023-04-08T07:44:21;7.00;99.90
4594;DHT22;2309;51.674;8.368;2023-04-08T07:46:48;7.00;99.90
4594;DHT22;2309;51.674;8.368;2023-04-08T07:49:16;7.00;99.90
4594;DHT22;2309;51.674;8.368;2023-04-08T07:51:44;7.00;99.90
4594;DHT22;2309;51.674;8.368;2023-04-08T07:54:12;7.10;99.90
4594;DHT22;2309;51.674;8.368;2023-04-08T07:56:42;7.00;99.90
4594;DHT22;2309;51.674;8.368;2023-04-08T07:59:12;7.00;95.80
4594;DHT22;2309;51.674;8.368;2023-04-08T08:01:42;6.90;99.90
4594;DHT22;2309;51.674;8.368;2023-04-08T08:04:12;7.00;99.90
4594;DHT22;2309;51.674;8.368;2023-04-08T08:06:41;7.10;99.90
4594;DHT22;2309;51.674;8.368;2023-04-08T08:09:10;7.10;99.90
4594;DHT22;2309;51.674;8.368;2023-04-08T08:11:37;7.10;99.90
4594;DHT22;2309;51.674;8.368;2023-04-08T08:14:07;7.20;99.90
4594;DHT22;2309;51.674;8.368;2023-04-08T08:16:36;7.30;99.90
4594;DHT22;2309;51.674;8.368;2023-04-08T08:21:32;7.60;1.00
4594;DHT22;2309;51.674;8.368;2023-04-08T08:24:01;7.70;1.00
4594;DHT22;2309;51.674;8.368;2023-04-08T08:26:28;7.70;1.00
4594;DHT22;2309;51.674;8.368;2023-04-08T08:28:56;7.90;1.00
4594;DHT22;2309;51.674;8.368;2023-04-08T08:31:24;7.90;1.00
4594;DHT22;2309;51.674;8.368;2023-04-08T08:33:52;8.00;99.90
4594;DHT22;2309;51.674;8.368;2023-04-08T08:36:21;8.10;99.90
4594;DHT22;2309;51.674;8.368;2023-04-08T08:38:48;8.10;1.00
4594;DHT22;2309;51.674;8.368;2023-04-08T08:41:18;8.20;99.90
4594;DHT22;2309;51.674;8.368;2023-04-08T08:43:45;8.30;99.90
4594;DHT22;2309;51.674;8.368;2023-04-08T08:46:16;8.40;99.90
4594;DHT22;2309;51.674;8.368;2023-04-08T08:48:44;8.60;99.90
4594;DHT22;2309;51.674;8.368;2023-04-08T08:53:38;8.90;99.90
4594;DHT22;2309;51.674;8.368;2023-04-08T08:56:08;9.10;99.90
4594;DHT22;2309;51.674;8.368;2023-04-08T08:58:37;9.30;99.90
4594;DHT22;2309;51.674;8.368;2023-04-08T09:03:35;9.30;99.90
4594;DHT22;2309;51.674;8.368;2023-04-08T09:06:04;9.20;99.90
4594;DHT22;2309;51.674;8.368;2023-04-08T09:08:33;9.00;99.90
4594;DHT22;2309;51.674;8.368;2023-04-08T09:11:16;9.30;99.90
4594;DHT22;2309;51.674;8.368;2023-04-08T09:13:34;9.30;99.90
4594;DHT22;2309;51.674;8.368;2023-04-08T09:16:02;9.40;99.90
4594;DHT22;2309;51.674;8.368;2023-04-08T09:18:32;9.50;99.90
4594;DHT22;2309;51.674;8.368;2023-04-08T09:20:59;9.40;99.90
4594;DHT22;2309;51.674;8.368;2023-04-08T09:23:36;9.30;99.90
4594;DHT22;2309;51.674;8.368;2023-04-08T09:26:00;9.40;99.90
4594;DHT22;2309;51.674;8.368;2023-04-08T09:28:25;9.60;99.90
4594;DHT22;2309;51.674;8.368;2023-04-08T09:30:52;9.50;99.90
4594;DHT22;2309;51.674;8.368;2023-04-08T09:33:19;9.60;99.90
4594;DHT22;2309;51.674;8.368;2023-04-08T09:35:47;9.60;99.90
4594;DHT22;2309;51.674;8.368;2023-04-08T09:38:14;9.60;99.90
4594;DHT22;2309;51.674;8.368;2023-04-08T09:40:41;9.90;99.90
4594;DHT22;2309;51.674;8.368;2023-04-08T09:43:10;10.10;99.90
4594;DHT22;2309;51.674;8.368;2023-04-08T09:45:39;10.30;98.00
4594;DHT22;2309;51.674;8.368;2023-04-08T09:48:09;10.50;99.90
4594;DHT22;2309;51.674;8.368;2023-04-08T09:53:08;10.70;42.40
4594;DHT22;2309;51.674;8.368;2023-04-08T09:55:36;11.00;48.10
4594;DHT22;2309;51.674;8.368;2023-04-08T09:58:07;11.10;31.30
4594;DHT22;2309;51.674;8.368;2023-04-08T10:00:36;11.30;29.30
4594;DHT22;2309;51.674;8.368;2023-04-08T10:03:05;11.50;19.60
4594;DHT22;2309;51.674;8.368;2023-04-08T10:05:34;11.40;15.50
4594;DHT22;2309;51.674;8.368;2023-04-08T10:08:01;11.40;9.00
4594;DHT22;2309;51.674;8.368;2023-04-08T10:10:33;11.20;6.20
4594;DHT22;2309;51.674;8.368;2023-04-08T10:12:59;11.00;27.20
4594;DHT22;2309;51.674;8.368;2023-04-08T10:15:29;11.10;27.40
4594;DHT22;2309;51.674;8.368;2023-04-08T10:20:40;11.20;11.80
4594;DHT22;2309;51.674;8.368;2023-04-08T10:22:57;11.30;21.90
4594;DHT22;2309;51.674;8.368;2023-04-08T10:27:54;11.40;10.00
4594;DHT22;2309;51.674;8.368;2023-04-08T10:32:50;10.90;22.40
4594;DHT22;2309;51.674;8.368;2023-04-08T10:35:28;10.60;28.70
4594;DHT22;2309;51.674;8.368;2023-04-08T10:37:50;10.50;29.10
4594;DHT22;2309;51.674;8.368;2023-04-08T10:40:18;10.70;26.40
4594;DHT22;2309;51.674;8.368;2023-04-08T10:45:16;11.10;31.50
4594;DHT22;2309;51.674;8.368;2023-04-08T10:47:43;10.90;51.20
4594;DHT22;2309;51.674;8.368;2023-04-08T10:50:12;10.90;32.00
4594;DHT22;2309;51.674;8.368;2023-04-08T10:52:46;11.10;30.50
4594;DHT22;2309;51.674;8.368;2023-04-08T10:55:07;11.10;22.90
4594;DHT22;2309;51.674;8.368;2023-04-08T10:57:34;11.20;21.60
4594;DHT22;2309;51.674;8.368;2023-04-08T11:00:03;11.40;10.70
4594;DHT22;2309;51.674;8.368;2023-04-08T11:02:31;11.40;13.70
4594;DHT22;2309;51.674;8.368;2023-04-08T11:04:58;11.50;4.90
4594;DHT22;2309;51.674;8.368;2023-04-08T11:07:27;11.70;16.70
4594;DHT22;2309;51.674;8.368;2023-04-08T11:09:55;11.70;11.50
4594;DHT22;2309;51.674;8.368;2023-04-08T11:12:27;11.70;5.70
4594;DHT22;2309;51.674;8.368;2023-04-08T11:14:54;11.60;6.50
4594;DHT22;2309;51.674;8.368;2023-04-08T11:17:23;11.70;14.10
4594;DHT22;2309;51.674;8.368;2023-04-08T11:19:50;11.60;1.80
4594;DHT22;2309;51.674;8.368;2023-04-08T11:22:18;11.70;10.60
4594;DHT22;2309;51.674;8.368;2023-04-08T11:24:46;12.20;1.00
4594;DHT22;2309;51.674;8.368;2023-04-08T11:27:13;12.90;1.00
4594;DHT22;2309;51.674;8.368;2023-04-08T11:29:41;12.20;1.00
4594;DHT22;2309;51.674;8.368;2023-04-08T11:32:10;12.30;1.00
4594;DHT22;2309;51.674;8.368;2023-04-08T11:34:39;12.20;1.00
4594;DHT22;2309;51.674;8.368;2023-04-08T11:37:07;12.10;44.30
4594;DHT22;2309;51.674;8.368;2023-04-08T11:39:39;12.10;1.00
4594;DHT22;2309;51.674;8.368;2023-04-08T11:44:32;12.10;1.00
4594;DHT22;2309;51.674;8.368;2023-04-08T11:47:00;12.00;1.00
4594;DHT22;2309;51.674;8.368;2023-04-08T11:49:42;11.80;63.70
4594;DHT22;2309;51.674;8.368;2023-04-08T11:56:50;12.20;1.00
4594;DHT22;2309;51.674;8.368;2023-04-08T11:59:19;11.90;1.00
4594;DHT22;2309;51.674;8.368;2023-04-08T12:04:12;12.00;1.00
4594;DHT22;2309;51.674;8.368;2023-04-08T12:06:41;12.20;1.00
4594;DHT22;2309;51.674;8.368;2023-04-08T12:09:10;12.10;1.00
4594;DHT22;2309;51.674;8.368;2023-04-08T12:11:37;12.20;1.00
4594;DHT22;2309;51.674;8.368;2023-04-08T12:14:07;12.00;1.00
4594;DHT22;2309;51.674;8.368;2023-04-08T12:16:34;12.00;1.00
4594;DHT22;2309;51.674;8.368;2023-04-08T12:19:05;12.10;1.00
4594;DHT22;2309;51.674;8.368;2023-04-08T12:21:33;11.70;1.00
4594;DHT22;2309;51.674;8.368;2023-04-08T12:24:00;12.30;1.00
4594;DHT22;2309;51.674;8.368;2023-04-08T12:26:29;12.50;1.00
4594;DHT22;2309;51.674;8.368;2023-04-08T12:31:22;12.60;1.00
4594;DHT22;2309;51.674;8.368;2023-04-08T12:33:52;12.70;1.00
4594;DHT22;2309;51.674;8.368;2023-04-08T12:36:22;12.70;1.00
4594;DHT22;2309;51.674;8.368;2023-04-08T12:41:17;12.70;1.00
4594;DHT22;2309;51.674;8.368;2023-04-08T12:43:47;12.60;1.00
4594;DHT22;2309;51.674;8.368;2023-04-08T12:48:41;12.40;1.00
4594;DHT22;2309;51.674;8.368;2023-04-08T12:51:10;12.30;1.10
4594;DHT22;2309;51.674;8.368;2023-04-08T12:56:04;12.10;1.00
4594;DHT22;2309;51.674;8.368;2023-04-08T13:00:58;11.90;1.00
4594;DHT22;2309;51.674;8.368;2023-04-08T13:13:15;12.10;2.00
4594;DHT22;2309;51.674;8.368;2023-04-08T13:18:11;12.10;6.20
4594;DHT22;2309;51.674;8.368;2023-04-08T13:20:38;12.10;2.80
4594;DHT22;2309;51.674;8.368;2023-04-08T13:23:05;12.20;3.70
4594;DHT22;2309;51.674;8.368;2023-04-08T13:25:34;12.20;5.70
4594;DHT22;2309;51.674;8.368;2023-04-08T13:28:01;12.10;4.70
4594;DHT22;2309;51.674;8.368;2023-04-08T13:32:57;11.90;34.30
4594;DHT22;2309;51.674;8.368;2023-04-08T13:37:54;11.60;66.70
4594;DHT22;2309;51.674;8.368;2023-04-08T13:40:21;11.50;41.50
4594;DHT22;2309;51.674;8.368;2023-04-08T13:42:53;11.40;61.80
4594;DHT22;2309;51.674;8.368;2023-04-08T13:47:45;11.00;93.10
4594;DHT22;2309;51.674;8.368;2023-04-08T13:52:40;11.20;99.90
4594;DHT22;2309;51.674;8.368;2023-04-08T13:57:35;11.30;76.00
4594;DHT22;2309;51.674;8.368;2023-04-08T14:02:31;11.20;89.70
4594;DHT22;2309;51.674;8.368;2023-04-08T14:04:58;11.10;86.10
4594;DHT22;2309;51.674;8.368;2023-04-08T14:07:25;10.90;95.30
4594;DHT22;2309;51.674;8.368;2023-04-08T14:12:20;11.20;95.30
4594;DHT22;2309;51.674;8.368;2023-04-08T14:17:14;11.10;82.80
4594;DHT22;2309;51.674;8.368;2023-04-08T14:19:44;11.00;84.60
4594;DHT22;2309;51.674;8.368;2023-04-08T14:22:10;11.00;98.40
4594;DHT22;2309;51.674;8.368;2023-04-08T14:24:37;11.10;98.60
4594;DHT22;2309;51.674;8.368;2023-04-08T14:27:04;11.20;98.00
4594;DHT22;2309;51.674;8.368;2023-04-08T14:29:31;11.50;96.90
4594;DHT22;2309;51.674;8.368;2023-04-08T14:31:58;11.50;94.60
4594;DHT22;2309;51.674;8.368;2023-04-08T14:34:26;11.70;88.20
4594;DHT22;2309;51.674;8.368;2023-04-08T14:36:55;11.80;73.60
4594;DHT22;2309;51.674;8.368;2023-04-08T14:39:23;11.70;69.90
4594;DHT22;2309;51.674;8.368;2023-04-08T14:41:53;11.70;77.60
4594;DHT22;2309;51.674;8.368;2023-04-08T14:44:22;11.70;71.80
4594;DHT22;2309;51.674;8.368;2023-04-08T14:46:50;11.60;62.30
4594;DHT22;2309;51.674;8.368;2023-04-08T14:49:20;11.70;62.20
4594;DHT22;2309;51.674;8.368;2023-04-08T14:51:52;11.90;66.00
4594;DHT22;2309;51.674;8.368;2023-04-08T14:54:21;12.20;33.00
4594;DHT22;2309;51.674;8.368;2023-04-08T14:56:51;12.50;17.10
4594;DHT22;2309;51.674;8.368;2023-04-08T14:59:20;12.70;7.00
4594;DHT22;2309;51.674;8.368;2023-04-08T15:01:50;12.70;1.20
4594;DHT22;2309;51.674;8.368;2023-04-08T15:04:21;12.60;5.30
4594;DHT22;2309;51.674;8.368;2023-04-08T15:06:51;12.70;8.20
4594;DHT22;2309;51.674;8.368;2023-04-08T15:09:21;12.70;84.80
4594;DHT22;2309;51.674;8.368;2023-04-08T15:11:49;12.90;9.40
4594;DHT22;2309;51.674;8.368;2023-04-08T15:14:19;12.90;10.20
4594;DHT22;2309;51.674;8.368;2023-04-08T15:16:46;12.50;10.40
4594;DHT22;2309;51.674;8.368;2023-04-08T15:21:43;12.10;52.00
4594;DHT22;2309;51.674;8.368;2023-04-08T15:24:17;12.10;28.80
4594;DHT22;2309;51.674;8.368;2023-04-08T15:26:41;11.90;28.60
4594;DHT22;2309;51.674;8.368;2023-04-08T15:29:10;11.60;53.40
4594;DHT22;2309;51.674;8.368;2023-04-08T15:31:41;11.40;59.50
4594;DHT22;2309;51.674;8.368;2023-04-08T15:34:10;11.30;77.80
4594;DHT22;2309;51.674;8.368;2023-04-08T15:36:40;11.20;95.70
4594;DHT22;2309;51.674;8.368;2023-04-08T15:39:07;11.20;99.90
4594;DHT22;2309;51.674;8.368;2023-04-08T15:41:37;11.10;95.50
4594;DHT22;2309;51.674;8.368;2023-04-08T15:44:05;11.20;99.90
4594;DHT22;2309;51.674;8.368;2023-04-08T15:46:36;11.10;99.90
4594;DHT22;2309;51.674;8.368;2023-04-08T15:49:06;10.80;99.90
4594;DHT22;2309;51.674;8.368;2023-04-08T15:51:34;10.80;99.90
4594;DHT22;2309;51.674;8.368;2023-04-08T15:54:09;10.80;99.90
4594;DHT22;2309;51.674;8.368;2023-04-08T15:56:41;10.80;99.90
4594;DHT22;2309;51.674;8.368;2023-04-08T15:59:09;10.80;99.90
4594;DHT22;2309;51.674;8.368;2023-04-08T16:01:37;10.80;99.90
4594;DHT22;2309;51.674;8.368;2023-04-08T16:04:06;10.80;99.90
4594;DHT22;2309;51.674;8.368;2023-04-08T16:09:04;10.90;99.90
4594;DHT22;2309;51.674;8.368;2023-04-08T16:14:03;10.90;99.90
4594;DHT22;2309;51.674;8.368;2023-04-08T16:16:34;10.80;99.90
4594;DHT22;2309;51.674;8.368;2023-04-08T16:19:04;10.80;99.90
4594;DHT22;2309;51.674;8.368;2023-04-08T16:24:06;10.70;99.90
4594;DHT22;2309;51.674;8.368;2023-04-08T16:26:38;10.60;99.90
4594;DHT22;2309;51.674;8.368;2023-04-08T16:31:33;10.50;99.90
4594;DHT22;2309;51.674;8.368;2023-04-08T16:34:05;10.40;99.90
4594;DHT22;2309;51.674;8.368;2023-04-08T16:36:33;10.30;99.90
4594;DHT22;2309;51.674;8.368;2023-04-08T16:39:05;10.30;99.90
4594;DHT22;2309;51.674;8.368;2023-04-08T16:41:34;10.20;99.90
4594;DHT22;2309;51.674;8.368;2023-04-08T16:46:31;10.20;99.90
4594;DHT22;2309;51.674;8.368;2023-04-08T16:49:00;10.20;99.90
4594;DHT22;2309;51.674;8.368;2023-04-08T16:51:30;10.10;99.90
4594;DHT22;2309;51.674;8.368;2023-04-08T16:53:56;10.00;99.90
4594;DHT22;2309;51.674;8.368;2023-04-08T16:56:26;10.00;99.90
4594;DHT22;2309;51.674;8.368;2023-04-08T16:58:55;10.00;99.90
4594;DHT22;2309;51.674;8.368;2023-04-08T17:01:23;10.00;99.90
4594;DHT22;2309;51.674;8.368;2023-04-08T17:03:59;10.00;99.90
4594;DHT22;2309;51.674;8.368;2023-04-08T17:06:24;10.00;99.90
4594;DHT22;2309;51.674;8.368;2023-04-08T17:11:20;9.90;99.90
4594;DHT22;2309;51.674;8.368;2023-04-08T17:13:54;9.90;99.90
4594;DHT22;2309;51.674;8.368;2023-04-08T17:16:24;9.90;99.90
4594;DHT22;2309;51.674;8.368;2023-04-08T17:18:53;9.90;99.90
4594;DHT22;2309;51.674;8.368;2023-04-08T17:26:17;9.70;99.90
4594;DHT22;2309;51.674;8.368;2023-04-08T17:28:47;9.60;99.90
4594;DHT22;2309;51.674;8.368;2023-04-08T17:31:15;9.60;99.90
4594;DHT22;2309;51.674;8.368;2023-04-08T17:33:45;9.60;99.90
4594;DHT22;2309;51.674;8.368;2023-04-08T17:36:13;9.50;99.90
4594;DHT22;2309;51.674;8.368;2023-04-08T17:38:45;9.60;99.90
4594;DHT22;2309;51.674;8.368;2023-04-08T17:41:13;9.50;99.90
4594;DHT22;2309;51.674;8.368;2023-04-08T17:43:42;9.30;99.90
4594;DHT22;2309;51.674;8.368;2023-04-08T17:46:13;9.40;99.90
4594;DHT22;2309;51.674;8.368;2023-04-08T17:48:43;9.40;99.90
4594;DHT22;2309;51.674;8.368;2023-04-08T17:51:14;9.40;99.90
4594;DHT22;2309;51.674;8.368;2023-04-08T17:53:43;9.30;99.90
4594;DHT22;2309;51.674;8.368;2023-04-08T17:56:13;9.30;1.00
4594;DHT22;2309;51.674;8.368;2023-04-08T17:58:41;9.40;1.00
4594;DHT22;2309;51.674;8.368;2023-04-08T18:01:13;9.40;1.00
4594;DHT22;2309;51.674;8.368;2023-04-08T18:03:43;9.40;1.00
4594;DHT22;2309;51.674;8.368;2023-04-08T18:06:11;9.30;1.00
4594;DHT22;2309;51.674;8.368;2023-04-08T18:08:41;9.30;1.00
4594;DHT22;2309;51.674;8.368;2023-04-08T18:11:11;9.20;1.00
4594;DHT22;2309;51.674;8.368;2023-04-08T18:13:44;9.20;1.00
4594;DHT22;2309;51.674;8.368;2023-04-08T18:16:15;9.20;1.00
4594;DHT22;2309;51.674;8.368;2023-04-08T18:21:08;9.10;1.00
4594;DHT22;2309;51.674;8.368;2023-04-08T18:23:40;9.20;13.40
4594;DHT22;2309;51.674;8.368;2023-04-08T18:26:08;9.20;1.00
4594;DHT22;2309;51.674;8.368;2023-04-08T18:28:35;9.20;1.00
4594;DHT22;2309;51.674;8.368;2023-04-08T18:33:40;9.20;44.30
4594;DHT22;2309;51.674;8.368;2023-04-08T18:36:09;9.10;40.00
4594;DHT22;2309;51.674;8.368;2023-04-08T18:41:07;9.10;1.00
4594;DHT22;2309;51.674;8.368;2023-04-08T18:43:36;9.10;1.00
4594;DHT22;2309;51.674;8.368;2023-04-08T18:46:04;9.10;1.00
4594;DHT22;2309;51.674;8.368;2023-04-08T18:48:32;9.00;1.00
4594;DHT22;2309;51.674;8.368;2023-04-08T18:51:02;9.00;1.00
4594;DHT22;2309;51.674;8.368;2023-04-08T18:53:31;9.00;1.00
4594;DHT22;2309;51.674;8.368;2023-04-08T18:55:58;9.00;1.00
4594;DHT22;2309;51.674;8.368;2023-04-08T18:58:31;9.00;1.00
4594;DHT22;2309;51.674;8.368;2023-04-08T19:00:59;8.90;1.00
4594;DHT22;2309;51.674;8.368;2023-04-08T19:03:29;9.00;1.00
4594;DHT22;2309;51.674;8.368;2023-04-08T19:06:03;9.00;1.00
4594;DHT22;2309;51.674;8.368;2023-04-08T19:08:32;8.90;1.00
4594;DHT22;2309;51.674;8.368;2023-04-08T19:11:05;8.90;1.00
4594;DHT22;2309;51.674;8.368;2023-04-08T19:13:31;8.90;1.00
4594;DHT22;2309;51.674;8.368;2023-04-08T19:16:02;8.90;1.00
4594;DHT22;2309;51.674;8.368;2023-04-08T19:18:29;8.80;1.00
4594;DHT22;2309;51.674;8.368;2023-04-08T19:20:59;8.80;1.00
4594;DHT22;2309;51.674;8.368;2023-04-08T19:23:31;8.80;1.00
4594;DHT22;2309;51.674;8.368;2023-04-08T19:26:04;8.80;1.00
4594;DHT22;2309;51.674;8.368;2023-04-08T19:28:33;8.80;1.00
4594;DHT22;2309;51.674;8.368;2023-04-08T19:36:01;8.60;1.00
4594;DHT22;2309;51.674;8.368;2023-04-08T19:38:31;8.60;1.00
4594;DHT22;2309;51.674;8.368;2023-04-08T19:40:57;8.50;1.00